sensor_id;sensor_type;location;lat;lon;timestamp;temperature;humidity
15617;DHT22;7908;51.688;7.130;2023-12-07T00:00:42;2.80;99.90
15617;DHT22;7908;51.688;7.130;2023-12-07T00:03:10;2.70;99.90
15617;DHT22;7908;51.688;7.130;2023-12-07T00:05:39;2.70;99.90
15617;DHT22;7908;51.688;7.130;2023-12-07T00:08:09;2.60;99.90
15617;DHT22;7908;51.688;7.130;2023-12-07T00:10:39;2.50;99.90
15617;DHT22;7908;51.688;7.130;2023-12-07T00:13:08;2.50;99.90
15617;DHT22;7908;51.688;7.130;2023-12-07T00:15:37;2.50;99.90
15617;DHT22;7908;51.688;7.130;2023-12-07T00:18:05;2.40;99.90
15617;DHT22;7908;51.688;7.130;2023-12-07T00:20:38;2.40;99.90
15617;DHT22;7908;51.688;7.130;2023-12-07T00:23:06;2.30;99.90
15617;DHT22;7908;51.688;7.130;2023-12-07T00:25:35;2.30;99.90
15617;DHT22;7908;51.688;7.130;2023-12-07T00:28:05;2.30;99.90
15617;DHT22;7908;51.688;7.130;2023-12-07T00:30:35;2.30;99.90
15617;DHT22;7908;51.688;7.130;2023-12-07T00:33:04;2.30;99.90
15617;DHT22;7908;51.688;7.130;2023-12-07T00:35:32;2.30;99.90
15617;DHT22;7908;51.688;7.130;2023-12-07T00:38:01;2.20;99.90
15617;DHT22;7908;51.688;7.130;2023-12-07T00:40:31;2.30;99.90
15617;DHT22;7908;51.688;7.130;2023-12-07T00:43:07;2.30;99.90
15617;DHT22;7908;51.688;7.130;2023-12-07T00:45:36;2.30;99.90
15617;DHT22;7908;51.688;7.130;2023-12-07T00:48:05;2.40;99.90
15617;DHT22;7908;51.688;7.130;2023-12-07T00:50:34;2.30;99.90
15617;DHT22;7908;51.688;7.130;2023-12-07T00:53:02;2.30;99.90
15617;DHT22;7908;51.688;7.130;2023-12-07T00:55:31;2.40;99.90
15617;DHT22;7908;51.688;7.130;2023-12-07T00:58:00;2.40;99.90
15617;DHT22;7908;51.688;7.130;2023-12-07T01:00:31;2.40;99.90
15617;DHT22;7908;51.688;7.130;2023-12-07T01:03:00;2.40;99.90
15617;DHT22;7908;51.688;7.130;2023-12-07T01:05:28;2.40;99.90
15617;DHT22;7908;51.688;7.130;2023-12-07T01:07:57;2.40;99.90
15617;DHT22;7908;51.688;7.130;2023-12-07T01:10:25;2.40;99.90
15617;DHT22;7908;51.688;7.130;2023-12-07T01:12:54;2.30;99.90
15617;DHT22;7908;51.688;7.130;2023-12-07T01:15:22;2.30;99.90
15617;DHT22;7908;51.688;7.130;2023-12-07T01:17:52;2.30;99.90
15617;DHT22;7908;51.688;7.130;2023-12-07T01:20:21;2.30;99.90
15617;DHT22;7908;51.688;7.130;2023-12-07T01:22:51;2.30;99.90
15617;DHT22;7908;51.688;7.130;2023-12-07T01:25:19;2.30;99.90
15617;DHT22;7908;51.688;7.130;2023-12-07T01:27:49;2.40;99.90
15617;DHT22;7908;51.688;7.130;2023-12-07T01:30:17;2.50;99.90
15617;DHT22;7908;51.688;7.130;2023-12-07T01:32:46;2.40;99.90
15617;DHT22;7908;51.688;7.130;2023-12-07T01:35:16;2.40;99.90
15617;DHT22;7908;51.688;7.130;2023-12-07T01:37:44;2.40;99.90
15617;DHT22;7908;51.688;7.130;2023-12-07T01:40:12;2.40;99.90
15617;DHT22;7908;51.688;7.130;2023-12-07T01:42:48;2.40;99.90
15617;DHT22;7908;51.688;7.130;2023-12-07T01:45:17;2.40;99.90
15617;DHT22;7908;51.688;7.130;2023-12-07T01:47:45;2.30;99.90
15617;DHT22;7908;51.688;7.130;2023-12-07T01:50:16;2.20;99.90
15617;DHT22;7908;51.688;7.130;2023-12-07T01:52:46;2.20;99.90
15617;DHT22;7908;51.688;7.130;2023-12-07T01:55:15;2.10;99.90
15617;DHT22;7908;51.688;7.130;2023-12-07T01:57:45;2.10;99.90
15617;DHT22;7908;51.688;7.130;2023-12-07T02:00:13;2.10;99.90
15617;DHT22;7908;51.688;7.130;2023-12-07T02:02:43;2.10;99.90
15617;DHT22;7908;51.688;7.130;2023-12-07T02:05:12;2.10;99.90
15617;DHT22;7908;51.688;7.130;2023-12-07T02:07:42;2.10;99.90
15617;DHT22;7908;51.688;7.130;2023-12-07T02:10:11;2.10;99.90
15617;DHT22;7908;51.688;7.130;2023-12-07T02:12:40;2.00;99.90
15617;DHT22;7908;51.688;7.130;2023-12-07T02:15:09;2.00;99.90
15617;DHT22;7908;51.688;7.130;2023-12-07T02:17:40;2.00;99.90
15617;DHT22;7908;51.688;7.130;2023-12-07T02:20:11;1.90;99.90
15617;DHT22;7908;51.688;7.130;2023-12-07T02:22:41;1.90;99.90
15617;DHT22;7908;51.688;7.130;2023-12-07T02:25:10;1.90;99.90
15617;DHT22;7908;51.688;7.130;2023-12-07T02:27:40;1.90;99.90
15617;DHT22;7908;51.688;7.130;2023-12-07T02:30:10;1.90;99.90
15617;DHT22;7908;51.688;7.130;2023-12-07T02:32:38;1.90;99.90
15617;DHT22;7908;51.688;7.130;2023-12-07T02:35:07;1.90;99.90
15617;DHT22;7908;51.688;7.130;2023-12-07T02:37:37;1.90;99.90
15617;DHT22;7908;51.688;7.130;2023-12-07T02:40:09;1.90;99.90
15617;DHT22;7908;51.688;7.130;2023-12-07T02:42:39;1.90;99.90
15617;DHT22;7908;51.688;7.130;2023-12-07T02:45:10;1.80;99.90
15617;DHT22;7908;51.688;7.130;2023-12-07T02:47:39;1.80;99.90
15617;DHT22;7908;51.688;7.130;2023-12-07T02:50:08;1.80;99.90
15617;DHT22;7908;51.688;7.130;2023-12-07T02:52:36;1.90;99.90
15617;DHT22;7908;51.688;7.130;2023-12-07T02:55:05;1.80;99.90
15617;DHT22;7908;51.688;7.130;2023-12-07T02:57:34;1.80;99.90
15617;DHT22;7908;51.688;7.130;2023-12-07T03:00:04;1.80;99.90
15617;DHT22;7908;51.688;7.130;2023-12-07T03:02:34;1.80;99.90
15617;DHT22;7908;51.688;7.130;2023-12-07T03:05:06;1.80;99.90
15617;DHT22;7908;51.688;7.130;2023-12-07T03:07:35;1.80;99.90
15617;DHT22;7908;51.688;7.130;2023-12-07T03:10:05;1.80;99.90
15617;DHT22;7908;51.688;7.130;2023-12-07T03:12:34;1.80;99.90
15617;DHT22;7908;51.688;7.130;2023-12-07T03:15:04;1.80;99.90
15617;DHT22;7908;51.688;7.130;2023-12-07T03:17:32;1.80;99.90
15617;DHT22;7908;51.688;7.130;2023-12-07T03:20:01;1.80;99.90
15617;DHT22;7908;51.688;7.130;2023-12-07T03:22:30;1.80;99.90
15617;DHT22;7908;51.688;7.130;2023-12-07T03:24:59;1.80;99.90
15617;DHT22;7908;51.688;7.130;2023-12-07T03:27:28;1.80;99.90
15617;DHT22;7908;51.688;7.130;2023-12-07T03:29:56;1.90;99.90
15617;DHT22;7908;51.688;7.130;2023-12-07T03:32:26;1.90;99.90
15617;DHT22;7908;51.688;7.130;2023-12-07T03:34:54;2.00;99.90
15617;DHT22;7908;51.688;7.130;2023-12-07T03:37:22;2.00;99.90
15617;DHT22;7908;51.688;7.130;2023-12-07T03:39:51;2.00;99.90
15617;DHT22;7908;51.688;7.130;2023-12-07T03:42:19;2.10;99.90
15617;DHT22;7908;51.688;7.130;2023-12-07T03:45:08;2.00;99.90
15617;DHT22;7908;51.688;7.130;2023-12-07T03:47:38;2.10;99.90
15617;DHT22;7908;51.688;7.130;2023-12-07T03:50:06;2.10;99.90
15617;DHT22;7908;51.688;7.130;2023-12-07T03:52:34;2.20;99.90
15617;DHT22;7908;51.688;7.130;2023-12-07T03:55:03;2.20;99.90
15617;DHT22;7908;51.688;7.130;2023-12-07T03:57:32;2.20;99.90
15617;DHT22;7908;51.688;7.130;2023-12-07T04:00:00;2.20;99.90
15617;DHT22;7908;51.688;7.130;2023-12-07T04:02:32;2.20;99.90
15617;DHT22;7908;51.688;7.130;2023-12-07T04:05:02;2.20;99.90
15617;DHT22;7908;51.688;7.130;2023-12-07T04:07:31;2.30;99.90
15617;DHT22;7908;51.688;7.130;2023-12-07T04:09:59;2.30;99.90
15617;DHT22;7908;51.688;7.130;2023-12-07T04:12:28;2.30;99.90
15617;DHT22;7908;51.688;7.130;2023-12-07T04:14:56;2.30;99.90
15617;DHT22;7908;51.688;7.130;2023-12-07T04:17:25;2.30;99.90
15617;DHT22;7908;51.688;7.130;2023-12-07T04:19:53;2.40;99.90
15617;DHT22;7908;51.688;7.130;2023-12-07T04:22:23;2.40;99.90
15617;DHT22;7908;51.688;7.130;2023-12-07T04:24:52;2.40;99.90
15617;DHT22;7908;51.688;7.130;2023-12-07T04:27:21;2.40;99.90
15617;DHT22;7908;51.688;7.130;2023-12-07T04:29:49;2.40;99.90
15617;DHT22;7908;51.688;7.130;2023-12-07T04:32:17;2.30;99.90
15617;DHT22;7908;51.688;7.130;2023-12-07T04:34:46;2.40;99.90
15617;DHT22;7908;51.688;7.130;2023-12-07T04:37:14;2.40;99.90
15617;DHT22;7908;51.688;7.130;2023-12-07T04:39:44;2.40;99.90
15617;DHT22;7908;51.688;7.130;2023-12-07T04:42:12;2.40;99.90
15617;DHT22;7908;51.688;7.130;2023-12-07T04:44:40;2.40;99.90
15617;DHT22;7908;51.688;7.130;2023-12-07T04:47:09;2.40;99.90
15617;DHT22;7908;51.688;7.130;2023-12-07T04:49:38;2.40;99.90
15617;DHT22;7908;51.688;7.130;2023-12-07T04:52:06;2.40;99.90
15617;DHT22;7908;51.688;7.130;2023-12-07T04:54:35;2.40;99.90
15617;DHT22;7908;51.688;7.130;2023-12-07T04:57:05;2.50;99.90
15617;DHT22;7908;51.688;7.130;2023-12-07T04:59:34;2.50;99.90
15617;DHT22;7908;51.688;7.130;2023-12-07T05:02:05;2.50;99.90
15617;DHT22;7908;51.688;7.130;2023-12-07T05:04:33;2.50;99.90
15617;DHT22;7908;51.688;7.130;2023-12-07T05:07:02;2.60;99.90
15617;DHT22;7908;51.688;7.130;2023-12-07T05:09:31;2.60;99.90
15617;DHT22;7908;51.688;7.130;2023-12-07T05:11:59;2.60;99.90
15617;DHT22;7908;51.688;7.130;2023-12-07T05:14:29;2.60;99.90
15617;DHT22;7908;51.688;7.130;2023-12-07T05:16:58;2.60;99.90
15617;DHT22;7908;51.688;7.130;2023-12-07T05:19:27;2.70;99.90
15617;DHT22;7908;51.688;7.130;2023-12-07T05:21:55;2.70;99.90
15617;DHT22;7908;51.688;7.130;2023-12-07T05:24:24;2.70;99.90
15617;DHT22;7908;51.688;7.130;2023-12-07T05:26:52;2.70;99.90
15617;DHT22;7908;51.688;7.130;2023-12-07T05:29:21;2.70;99.90
15617;DHT22;7908;51.688;7.130;2023-12-07T05:31:52;2.80;99.90
15617;DHT22;7908;51.688;7.130;2023-12-07T05:34:20;2.80;99.90
15617;DHT22;7908;51.688;7.130;2023-12-07T05:36:48;2.80;99.90
15617;DHT22;7908;51.688;7.130;2023-12-07T05:39:17;2.80;99.90
15617;DHT22;7908;51.688;7.130;2023-12-07T05:41:46;2.90;99.90
15617;DHT22;7908;51.688;7.130;2023-12-07T05:44:14;2.90;99.90
15617;DHT22;7908;51.688;7.130;2023-12-07T05:46:52;2.90;99.90
15617;DHT22;7908;51.688;7.130;2023-12-07T05:49:21;2.90;99.90
15617;DHT22;7908;51.688;7.130;2023-12-07T05:51:51;2.90;99.90
15617;DHT22;7908;51.688;7.130;2023-12-07T05:54:20;2.90;99.90
15617;DHT22;7908;51.688;7.130;2023-12-07T05:56:51;2.90;99.90
15617;DHT22;7908;51.688;7.130;2023-12-07T05:59:22;2.90;99.90
15617;DHT22;7908;51.688;7.130;2023-12-07T06:01:55;2.90;99.90
15617;DHT22;7908;51.688;7.130;2023-12-07T06:04:23;3.00;99.90
15617;DHT22;7908;51.688;7.130;2023-12-07T06:06:52;3.00;99.90
15617;DHT22;7908;51.688;7.130;2023-12-07T06:09:20;3.00;99.90
15617;DHT22;7908;51.688;7.130;2023-12-07T06:11:52;3.10;99.90
15617;DHT22;7908;51.688;7.130;2023-12-07T06:14:20;3.00;99.90
15617;DHT22;7908;51.688;7.130;2023-12-07T06:16:51;3.00;99.90
15617;DHT22;7908;51.688;7.130;2023-12-07T06:19:21;3.00;99.90
15617;DHT22;7908;51.688;7.130;2023-12-07T06:21:50;2.90;99.90
15617;DHT22;7908;51.688;7.130;2023-12-07T06:24:19;2.90;99.90
15617;DHT22;7908;51.688;7.130;2023-12-07T06:26:52;2.90;99.90
15617;DHT22;7908;51.688;7.130;2023-12-07T06:29:21;2.90;99.90
15617;DHT22;7908;51.688;7.130;2023-12-07T06:31:54;2.90;99.90
15617;DHT22;7908;51.688;7.130;2023-12-07T06:34:24;2.90;99.90
15617;DHT22;7908;51.688;7.130;2023-12-07T06:36:53;2.80;99.90
15617;DHT22;7908;51.688;7.130;2023-12-07T06:39:21;2.80;99.90
15617;DHT22;7908;51.688;7.130;2023-12-07T06:41:50;2.80;99.90
15617;DHT22;7908;51.688;7.130;2023-12-07T06:44:21;2.80;99.90
15617;DHT22;7908;51.688;7.130;2023-12-07T06:46:51;2.80;99.90
15617;DHT22;7908;51.688;7.130;2023-12-07T06:49:20;2.80;99.90
15617;DHT22;7908;51.688;7.130;2023-12-07T06:51:56;2.80;99.90
15617;DHT22;7908;51.688;7.130;2023-12-07T06:54:24;2.80;99.90
15617;DHT22;7908;51.688;7.130;2023-12-07T06:56:53;2.80;99.90
15617;DHT22;7908;51.688;7.130;2023-12-07T06:59:21;2.90;99.90
15617;DHT22;7908;51.688;7.130;2023-12-07T07:01:58;2.90;99.90
15617;DHT22;7908;51.688;7.130;2023-12-07T07:04:27;2.80;99.90
15617;DHT22;7908;51.688;7.130;2023-12-07T07:06:58;2.80;99.90
15617;DHT22;7908;51.688;7.130;2023-12-07T07:09:26;2.90;99.90
15617;DHT22;7908;51.688;7.130;2023-12-07T07:11:55;2.90;99.90
15617;DHT22;7908;51.688;7.130;2023-12-07T07:14:23;2.80;99.90
15617;DHT22;7908;51.688;7.130;2023-12-07T07:16:52;2.80;99.90
15617;DHT22;7908;51.688;7.130;2023-12-07T07:19:21;2.80;99.90
15617;DHT22;7908;51.688;7.130;2023-12-07T07:21:50;2.80;99.90
15617;DHT22;7908;51.688;7.130;2023-12-07T07:24:20;2.70;99.90
15617;DHT22;7908;51.688;7.130;2023-12-07T07:26:48;2.70;99.90
15617;DHT22;7908;51.688;7.130;2023-12-07T07:29:17;2.60;99.90
15617;DHT22;7908;51.688;7.130;2023-12-07T07:31:46;2.60;99.90
15617;DHT22;7908;51.688;7.130;2023-12-07T07:34:18;2.60;99.90
15617;DHT22;7908;51.688;7.130;2023-12-07T07:36:47;2.50;99.90
15617;DHT22;7908;51.688;7.130;2023-12-07T07:39:22;2.50;99.90
15617;DHT22;7908;51.688;7.130;2023-12-07T07:41:55;2.50;99.90
15617;DHT22;7908;51.688;7.130;2023-12-07T07:44:23;2.40;99.90
15617;DHT22;7908;51.688;7.130;2023-12-07T07:46:52;2.40;99.90
15617;DHT22;7908;51.688;7.130;2023-12-07T07:49:21;2.40;99.90
15617;DHT22;7908;51.688;7.130;2023-12-07T07:51:51;2.40;99.90
15617;DHT22;7908;51.688;7.130;2023-12-07T07:54:25;2.30;99.90
15617;DHT22;7908;51.688;7.130;2023-12-07T07:56:53;2.20;99.90
15617;DHT22;7908;51.688;7.130;2023-12-07T07:59:22;2.30;99.90
15617;DHT22;7908;51.688;7.130;2023-12-07T08:01:52;2.20;99.90
15617;DHT22;7908;51.688;7.130;2023-12-07T08:04:21;2.10;99.90
15617;DHT22;7908;51.688;7.130;2023-12-07T08:06:54;2.10;99.90
15617;DHT22;7908;51.688;7.130;2023-12-07T08:09:27;2.10;99.90
15617;DHT22;7908;51.688;7.130;2023-12-07T08:11:56;2.00;99.90
15617;DHT22;7908;51.688;7.130;2023-12-07T08:14:24;2.00;99.90
15617;DHT22;7908;51.688;7.130;2023-12-07T08:16:57;2.00;99.90
15617;DHT22;7908;51.688;7.130;2023-12-07T08:19:25;1.90;99.90
15617;DHT22;7908;51.688;7.130;2023-12-07T08:21:54;1.90;99.90
15617;DHT22;7908;51.688;7.130;2023-12-07T08:24:25;1.80;99.90
15617;DHT22;7908;51.688;7.130;2023-12-07T08:26:54;1.80;99.90
15617;DHT22;7908;51.688;7.130;2023-12-07T08:29:22;1.90;99.90
15617;DHT22;7908;51.688;7.130;2023-12-07T08:31:52;1.90;99.90
15617;DHT22;7908;51.688;7.130;2023-12-07T08:34:22;1.90;99.90
15617;DHT22;7908;51.688;7.130;2023-12-07T08:36:52;2.00;99.90
15617;DHT22;7908;51.688;7.130;2023-12-07T08:39:23;1.90;99.90
15617;DHT22;7908;51.688;7.130;2023-12-07T08:41:54;2.00;99.90
15617;DHT22;7908;51.688;7.130;2023-12-07T08:44:22;2.00;99.90
15617;DHT22;7908;51.688;7.130;2023-12-07T08:46:53;2.10;99.90
15617;DHT22;7908;51.688;7.130;2023-12-07T08:49:22;2.10;99.90
15617;DHT22;7908;51.688;7.130;2023-12-07T08:51:51;2.10;99.90
15617;DHT22;7908;51.688;7.130;2023-12-07T08:54:40;2.10;99.90
15617;DHT22;7908;51.688;7.130;2023-12-07T08:57:11;2.10;99.90
15617;DHT22;7908;51.688;7.130;2023-12-07T08:59:40;2.10;99.90
15617;DHT22;7908;51.688;7.130;2023-12-07T09:02:11;2.20;99.90
15617;DHT22;7908;51.688;7.130;2023-12-07T09:04:59;2.20;99.90
15617;DHT22;7908;51.688;7.130;2023-12-07T09:07:28;2.30;99.90
15617;DHT22;7908;51.688;7.130;2023-12-07T09:09:58;2.30;99.90
15617;DHT22;7908;51.688;7.130;2023-12-07T09:12:32;2.30;99.90
15617;DHT22;7908;51.688;7.130;2023-12-07T09:15:06;2.40;99.90
15617;DHT22;7908;51.688;7.130;2023-12-07T09:17:38;2.40;99.90
15617;DHT22;7908;51.688;7.130;2023-12-07T09:20:08;2.50;99.90
15617;DHT22;7908;51.688;7.130;2023-12-07T09:22:41;2.50;99.90
15617;DHT22;7908;51.688;7.130;2023-12-07T09:25:11;2.60;99.90
15617;DHT22;7908;51.688;7.130;2023-12-07T09:27:43;2.70;99.90
15617;DHT22;7908;51.688;7.130;2023-12-07T09:30:13;2.70;99.90
15617;DHT22;7908;51.688;7.130;2023-12-07T09:32:50;2.70;99.90
15617;DHT22;7908;51.688;7.130;2023-12-07T09:35:22;2.80;99.90
15617;DHT22;7908;51.688;7.130;2023-12-07T09:37:51;2.80;99.90
15617;DHT22;7908;51.688;7.130;2023-12-07T09:40:20;2.90;99.90
15617;DHT22;7908;51.688;7.130;2023-12-07T09:42:51;2.90;99.90
15617;DHT22;7908;51.688;7.130;2023-12-07T09:45:20;3.00;99.90
15617;DHT22;7908;51.688;7.130;2023-12-07T09:47:52;3.00;99.90
15617;DHT22;7908;51.688;7.130;2023-12-07T09:50:25;3.00;99.90
15617;DHT22;7908;51.688;7.130;2023-12-07T09:52:56;3.10;99.90
15617;DHT22;7908;51.688;7.130;2023-12-07T09:55:34;3.10;99.90
15617;DHT22;7908;51.688;7.130;2023-12-07T09:58:06;3.20;99.90
15617;DHT22;7908;51.688;7.130;2023-12-07T10:00:39;3.20;99.90
15617;DHT22;7908;51.688;7.130;2023-12-07T10:03:08;3.30;99.90
15617;DHT22;7908;51.688;7.130;2023-12-07T10:05:53;3.30;99.90
15617;DHT22;7908;51.688;7.130;2023-12-07T10:08:26;3.40;99.90
15617;DHT22;7908;51.688;7.130;2023-12-07T10:11:09;3.40;99.90
15617;DHT22;7908;51.688;7.130;2023-12-07T10:13:42;3.40;99.90
15617;DHT22;7908;51.688;7.130;2023-12-07T10:16:12;3.40;99.90
15617;DHT22;7908;51.688;7.130;2023-12-07T10:18:42;3.40;99.90
15617;DHT22;7908;51.688;7.130;2023-12-07T10:21:12;3.50;99.90
15617;DHT22;7908;51.688;7.130;2023-12-07T10:23:41;3.50;99.90
15617;DHT22;7908;51.688;7.130;2023-12-07T10:26:15;3.50;99.90
15617;DHT22;7908;51.688;7.130;2023-12-07T10:28:49;3.50;99.90
15617;DHT22;7908;51.688;7.130;2023-12-07T10:31:23;3.50;99.90
15617;DHT22;7908;51.688;7.130;2023-12-07T10:33:52;3.60;99.90
15617;DHT22;7908;51.688;7.130;2023-12-07T10:36:21;3.60;99.90
15617;DHT22;7908;51.688;7.130;2023-12-07T10:38:53;3.60;99.90
15617;DHT22;7908;51.688;7.130;2023-12-07T10:41:24;3.70;99.90
15617;DHT22;7908;51.688;7.130;2023-12-07T10:44:00;3.70;99.90
15617;DHT22;7908;51.688;7.130;2023-12-07T10:46:29;3.70;99.90
15617;DHT22;7908;51.688;7.130;2023-12-07T10:49:04;3.70;99.90
15617;DHT22;7908;51.688;7.130;2023-12-07T10:51:48;3.70;99.90
15617;DHT22;7908;51.688;7.130;2023-12-07T10:54:22;3.80;99.90
15617;DHT22;7908;51.688;7.130;2023-12-07T10:56:52;3.80;99.90
15617;DHT22;7908;51.688;7.130;2023-12-07T10:59:22;3.80;99.90
15617;DHT22;7908;51.688;7.130;2023-12-07T11:02:02;3.90;99.90
15617;DHT22;7908;51.688;7.130;2023-12-07T11:04:37;3.90;99.90
15617;DHT22;7908;51.688;7.130;2023-12-07T11:07:07;4.00;99.90
15617;DHT22;7908;51.688;7.130;2023-12-07T11:09:41;4.00;99.90
15617;DHT22;7908;51.688;7.130;2023-12-07T11:12:14;4.00;99.90
15617;DHT22;7908;51.688;7.130;2023-12-07T11:14:48;4.00;99.90
15617;DHT22;7908;51.688;7.130;2023-12-07T11:17:20;4.00;99.90
15617;DHT22;7908;51.688;7.130;2023-12-07T11:19:49;4.00;99.90
15617;DHT22;7908;51.688;7.130;2023-12-07T11:22:18;4.00;99.90
15617;DHT22;7908;51.688;7.130;2023-12-07T11:24:54;4.10;99.90
15617;DHT22;7908;51.688;7.130;2023-12-07T11:27:25;4.10;99.90
15617;DHT22;7908;51.688;7.130;2023-12-07T11:29:57;4.20;99.90
15617;DHT22;7908;51.688;7.130;2023-12-07T11:32:30;4.20;99.90
15617;DHT22;7908;51.688;7.130;2023-12-07T11:35:02;4.20;99.90
15617;DHT22;7908;51.688;7.130;2023-12-07T11:40:19;4.30;99.90
15617;DHT22;7908;51.688;7.130;2023-12-07T11:42:49;4.30;99.90
15617;DHT22;7908;51.688;7.130;2023-12-07T11:45:25;4.30;99.90
15617;DHT22;7908;51.688;7.130;2023-12-07T11:48:10;4.40;99.90
15617;DHT22;7908;51.688;7.130;2023-12-07T11:50:55;4.40;99.90
15617;DHT22;7908;51.688;7.130;2023-12-07T11:53:35;4.40;99.90
15617;DHT22;7908;51.688;7.130;2023-12-07T11:56:05;4.40;99.90
15617;DHT22;7908;51.688;7.130;2023-12-07T11:58:38;4.40;99.90
15617;DHT22;7908;51.688;7.130;2023-12-07T12:01:09;4.50;99.90
15617;DHT22;7908;51.688;7.130;2023-12-07T12:03:40;4.50;99.90
15617;DHT22;7908;51.688;7.130;2023-12-07T12:06:11;4.50;99.90
15617;DHT22;7908;51.688;7.130;2023-12-07T12:08:40;4.60;99.90
15617;DHT22;7908;51.688;7.130;2023-12-07T12:11:10;4.50;99.90
15617;DHT22;7908;51.688;7.130;2023-12-07T12:13:43;4.60;99.90
15617;DHT22;7908;51.688;7.130;2023-12-07T12:16:16;4.60;99.90
15617;DHT22;7908;51.688;7.130;2023-12-07T12:18:46;4.60;99.90
15617;DHT22;7908;51.688;7.130;2023-12-07T12:21:16;4.60;99.90
15617;DHT22;7908;51.688;7.130;2023-12-07T12:23:47;4.70;99.90
15617;DHT22;7908;51.688;7.130;2023-12-07T12:26:18;4.80;99.90
15617;DHT22;7908;51.688;7.130;2023-12-07T12:28:49;4.80;99.90
15617;DHT22;7908;51.688;7.130;2023-12-07T12:31:21;4.70;99.90
15617;DHT22;7908;51.688;7.130;2023-12-07T12:33:50;4.70;99.90
15617;DHT22;7908;51.688;7.130;2023-12-07T12:36:18;4.70;99.90
15617;DHT22;7908;51.688;7.130;2023-12-07T12:38:51;4.70;99.90
15617;DHT22;7908;51.688;7.130;2023-12-07T12:41:22;4.70;99.90
15617;DHT22;7908;51.688;7.130;2023-12-07T12:43:58;4.70;99.90
15617;DHT22;7908;51.688;7.130;2023-12-07T12:46:28;4.80;99.90
15617;DHT22;7908;51.688;7.130;2023-12-07T12:48:59;4.70;99.90
15617;DHT22;7908;51.688;7.130;2023-12-07T12:51:28;4.70;99.90
15617;DHT22;7908;51.688;7.130;2023-12-07T12:53:59;4.70;99.90
15617;DHT22;7908;51.688;7.130;2023-12-07T12:56:28;4.70;99.90
15617;DHT22;7908;51.688;7.130;2023-12-07T12:58:57;4.70;99.90
15617;DHT22;7908;51.688;7.130;2023-12-07T13:01:33;4.60;99.90
15617;DHT22;7908;51.688;7.130;2023-12-07T13:04:03;4.60;99.90
15617;DHT22;7908;51.688;7.130;2023-12-07T13:06:34;4.60;99.90
15617;DHT22;7908;51.688;7.130;2023-12-07T13:09:08;4.50;99.90
15617;DHT22;7908;51.688;7.130;2023-12-07T13:11:37;4.50;99.90
15617;DHT22;7908;51.688;7.130;2023-12-07T13:14:08;4.50;99.90
15617;DHT22;7908;51.688;7.130;2023-12-07T13:16:38;4.50;99.90
15617;DHT22;7908;51.688;7.130;2023-12-07T13:19:11;4.50;99.90
15617;DHT22;7908;51.688;7.130;2023-12-07T13:21:43;4.50;99.90
15617;DHT22;7908;51.688;7.130;2023-12-07T13:24:12;4.50;99.90
15617;DHT22;7908;51.688;7.130;2023-12-07T13:26:41;4.50;99.90
15617;DHT22;7908;51.688;7.130;2023-12-07T13:29:10;4.50;99.90
15617;DHT22;7908;51.688;7.130;2023-12-07T13:31:51;4.50;99.90
15617;DHT22;7908;51.688;7.130;2023-12-07T13:34:20;4.50;99.90
15617;DHT22;7908;51.688;7.130;2023-12-07T13:36:50;4.40;99.90
15617;DHT22;7908;51.688;7.130;2023-12-07T13:39:21;4.40;99.90
15617;DHT22;7908;51.688;7.130;2023-12-07T13:41:58;4.40;99.90
15617;DHT22;7908;51.688;7.130;2023-12-07T13:44:30;4.40;99.90
15617;DHT22;7908;51.688;7.130;2023-12-07T13:47:04;4.40;99.90
15617;DHT22;7908;51.688;7.130;2023-12-07T13:49:33;4.40;99.90
15617;DHT22;7908;51.688;7.130;2023-12-07T13:52:02;4.40;99.90
15617;DHT22;7908;51.688;7.130;2023-12-07T13:54:34;4.30;99.90
15617;DHT22;7908;51.688;7.130;2023-12-07T13:57:06;4.30;99.90
15617;DHT22;7908;51.688;7.130;2023-12-07T13:59:38;4.20;99.90
15617;DHT22;7908;51.688;7.130;2023-12-07T14:02:10;4.20;99.90
15617;DHT22;7908;51.688;7.130;2023-12-07T14:04:41;4.20;99.90
15617;DHT22;7908;51.688;7.130;2023-12-07T14:07:10;4.20;99.90
15617;DHT22;7908;51.688;7.130;2023-12-07T14:09:42;4.20;99.90
15617;DHT22;7908;51.688;7.130;2023-12-07T14:12:24;4.10;99.90
15617;DHT22;7908;51.688;7.130;2023-12-07T14:14:56;4.10;99.90
15617;DHT22;7908;51.688;7.130;2023-12-07T14:17:26;4.10;99.90
15617;DHT22;7908;51.688;7.130;2023-12-07T14:20:10;4.10;99.90
15617;DHT22;7908;51.688;7.130;2023-12-07T14:23:04;4.10;99.90
15617;DHT22;7908;51.688;7.130;2023-12-07T14:25:33;4.00;99.90
15617;DHT22;7908;51.688;7.130;2023-12-07T14:28:02;4.00;99.90
15617;DHT22;7908;51.688;7.130;2023-12-07T14:30:34;4.00;99.90
15617;DHT22;7908;51.688;7.130;2023-12-07T14:33:06;3.90;99.90
15617;DHT22;7908;51.688;7.130;2023-12-07T14:35:35;3.90;99.90
15617;DHT22;7908;51.688;7.130;2023-12-07T14:38:04;3.80;99.90
15617;DHT22;7908;51.688;7.130;2023-12-07T14:40:34;3.80;99.90
15617;DHT22;7908;51.688;7.130;2023-12-07T14:43:05;3.80;99.90
15617;DHT22;7908;51.688;7.130;2023-12-07T14:45:34;3.80;99.90
15617;DHT22;7908;51.688;7.130;2023-12-07T14:48:04;3.70;99.90
15617;DHT22;7908;51.688;7.130;2023-12-07T14:50:35;3.70;99.90
15617;DHT22;7908;51.688;7.130;2023-12-07T14:53:05;3.60;99.90
15617;DHT22;7908;51.688;7.130;2023-12-07T14:55:34;3.60;99.90
15617;DHT22;7908;51.688;7.130;2023-12-07T14:58:04;3.60;99.90
15617;DHT22;7908;51.688;7.130;2023-12-07T15:00:40;3.50;99.90
15617;DHT22;7908;51.688;7.130;2023-12-07T15:03:12;3.50;99.90
15617;DHT22;7908;51.688;7.130;2023-12-07T15:05:43;3.40;99.90
15617;DHT22;7908;51.688;7.130;2023-12-07T15:08:12;3.40;99.90
15617;DHT22;7908;51.688;7.130;2023-12-07T15:10:42;3.40;99.90
15617;DHT22;7908;51.688;7.130;2023-12-07T15:13:12;3.40;99.90
15617;DHT22;7908;51.688;7.130;2023-12-07T15:15:41;3.40;99.90
15617;DHT22;7908;51.688;7.130;2023-12-07T15:18:12;3.30;99.90
15617;DHT22;7908;51.688;7.130;2023-12-07T15:20:45;3.30;99.90
15617;DHT22;7908;51.688;7.130;2023-12-07T15:23:14;3.20;99.90
15617;DHT22;7908;51.688;7.130;2023-12-07T15:25:44;3.20;99.90
15617;DHT22;7908;51.688;7.130;2023-12-07T15:28:17;3.20;99.90
15617;DHT22;7908;51.688;7.130;2023-12-07T15:30:47;3.10;99.90
15617;DHT22;7908;51.688;7.130;2023-12-07T15:33:17;3.10;99.90
15617;DHT22;7908;51.688;7.130;2023-12-07T15:35:53;3.00;99.90
15617;DHT22;7908;51.688;7.130;2023-12-07T15:38:25;3.00;99.90
15617;DHT22;7908;51.688;7.130;2023-12-07T15:40:55;3.00;99.90
15617;DHT22;7908;51.688;7.130;2023-12-07T15:43:30;2.90;99.90
15617;DHT22;7908;51.688;7.130;2023-12-07T15:46:00;2.90;99.90
15617;DHT22;7908;51.688;7.130;2023-12-07T15:48:33;2.80;99.90
15617;DHT22;7908;51.688;7.130;2023-12-07T15:51:04;2.80;99.90
15617;DHT22;7908;51.688;7.130;2023-12-07T15:53:40;2.80;99.90
15617;DHT22;7908;51.688;7.130;2023-12-07T15:56:10;2.80;99.90
15617;DHT22;7908;51.688;7.130;2023-12-07T15:58:41;2.70;99.90
15617;DHT22;7908;51.688;7.130;2023-12-07T16:01:14;2.70;99.90
15617;DHT22;7908;51.688;7.130;2023-12-07T16:03:43;2.70;99.90
15617;DHT22;7908;51.688;7.130;2023-12-07T16:06:13;2.70;99.90
15617;DHT22;7908;51.688;7.130;2023-12-07T16:08:45;2.70;99.90
15617;DHT22;7908;51.688;7.130;2023-12-07T16:11:17;2.60;99.90
15617;DHT22;7908;51.688;7.130;2023-12-07T16:13:46;2.60;99.90
15617;DHT22;7908;51.688;7.130;2023-12-07T16:16:17;2.60;99.90
15617;DHT22;7908;51.688;7.130;2023-12-07T16:18:50;2.60;99.90
15617;DHT22;7908;51.688;7.130;2023-12-07T16:21:23;2.50;99.90
15617;DHT22;7908;51.688;7.130;2023-12-07T16:23:58;2.50;99.90
15617;DHT22;7908;51.688;7.130;2023-12-07T16:26:27;2.40;99.90